Terminal Aerodrome Forecast
Issued by NWS Wakefield, VA

Home | Current Version | Previous Version | Text Only | Print | Product List | Glossary On
Versions: 1 2 3 4 5 6 7 8 9 10 11 12 13 14 15 16 17 18 19 20 21 22 23 24 25
952
FTUS41 KAKQ 110113 AAA
TAFSBY
TAF AMD
KSBY 110113Z 1101/1124 31010KT P6SM VCSH BKN060
     FM110400 29011KT P6SM BKN050
     FM110900 29011KT P6SM SKC
     FM111400 29014G24KT P6SM SCT250=

USA.gov is the U.S. government's official web portal to all federal, state and local government web resources and services.